createdAt,value
2022-08-09T00:00:04.519Z,72.57
2022-08-09T00:02:34.122Z,72.67
2022-08-09T00:06:15.489Z,72.00
2022-08-09T00:07:48.441Z,72.03
2022-08-09T00:10:21.357Z,72.07
2022-08-09T00:12:51.685Z,71.58
2022-08-09T00:15:26.546Z,72.55
2022-08-09T00:18:06.115Z,71.51
2022-08-09T00:20:38.399Z,72.23
2022-08-09T00:23:55.379Z,72.63
2022-08-09T00:25:56.310Z,72.24
2022-08-09T00:28:23.499Z,72.29
2022-08-09T00:30:54.236Z,72.02
2022-08-09T00:33:32.661Z,73.41
2022-08-09T00:36:08.389Z,72.81
2022-08-09T00:38:35.239Z,73.04
2022-08-09T00:41:03.316Z,73.93
2022-08-09T00:44:10.713Z,73.18
2022-08-09T00:46:44.204Z,73.72
2022-08-09T00:49:11.081Z,73.89
2022-08-09T00:51:54.215Z,73.10
2022-08-09T00:54:21.692Z,74.54
2022-08-09T00:56:57.878Z,74.33
2022-08-09T00:59:40.351Z,74.33
2022-08-09T01:02:09.276Z,74.26
2022-08-09T01:04:50.163Z,75.06
2022-08-09T01:07:38.018Z,75.22
2022-08-09T01:10:14.100Z,76.06
2022-08-09T01:13:31.193Z,75.71
2022-08-09T01:16:12.934Z,74.58
2022-08-09T01:18:47.439Z,75.38
2022-08-09T01:21:50.790Z,75.93
2022-08-09T01:24:39.118Z,75.26
2022-08-09T01:27:05.615Z,75.62
2022-08-09T01:29:56.120Z,76.00
2022-08-09T01:32:31.771Z,76.34
2022-08-09T01:35:18.297Z,75.79
2022-08-09T01:38:07.858Z,76.83
2022-08-09T01:40:42.466Z,76.59
2022-08-09T01:43:10.882Z,76.62
2022-08-09T01:45:44.747Z,77.05
2022-08-09T01:48:16.260Z,77.76
2022-08-09T01:50:48.108Z,77.84
2022-08-09T01:53:19.182Z,77.57
2022-08-09T01:55:47.901Z,77.16
2022-08-09T01:58:16.043Z,77.51
2022-08-09T02:00:46.287Z,78.10
2022-08-09T02:03:19.381Z,77.96
2022-08-09T02:06:03.402Z,78.60
2022-08-09T02:08:57.025Z,77.45
2022-08-09T02:11:21.934Z,79.39
2022-08-09T02:14:06.187Z,77.90
2022-08-09T02:16:53.029Z,78.43
2022-08-09T02:19:24.112Z,79.43
2022-08-09T02:22:09.220Z,78.88
2022-08-09T02:24:38.056Z,78.77
2022-08-09T02:27:09.331Z,80.00
2022-08-09T02:29:44.201Z,79.01
2022-08-09T02:32:12.994Z,79.40
2022-08-09T02:34:51.763Z,79.98
2022-08-09T02:37:31.905Z,81.10
2022-08-09T02:40:10.350Z,80.35
2022-08-09T02:42:39.626Z,80.54
2022-08-09T02:45:13.764Z,80.88
2022-08-09T02:47:57.573Z,80.69
2022-08-09T02:50:31.043Z,81.59
2022-08-09T02:53:02.684Z,80.26
2022-08-09T02:55:46.260Z,80.62
2022-08-09T02:58:36.945Z,81.96
2022-08-09T03:01:07.746Z,81.51
2022-08-09T03:04:05.771Z,82.21
2022-08-09T03:06:25.161Z,82.50
2022-08-09T03:08:55.702Z,81.29
2022-08-09T03:12:04.177Z,81.92
2022-08-09T03:14:11.929Z,80.83
2022-08-09T03:16:44.756Z,82.17
2022-08-09T03:19:14.528Z,81.31
2022-08-09T03:22:03.109Z,81.57
2022-08-09T03:24:39.847Z,81.70
2022-08-09T03:27:10.865Z,82.70
2022-08-09T03:29:56.902Z,82.14
2022-08-09T03:32:26.221Z,82.87
2022-08-09T03:34:54.168Z,83.22
2022-08-09T03:37:55.177Z,83.33
2022-08-09T03:40:08.354Z,83.33
2022-08-09T03:42:39.781Z,83.46
2022-08-09T03:45:10.768Z,83.30
2022-08-09T03:47:40.284Z,83.23
2022-08-09T03:50:18.725Z,84.17
2022-08-09T03:52:57.797Z,83.79
2022-08-09T03:55:26.585Z,83.42
2022-08-09T03:58:03.254Z,83.99
2022-08-09T04:00:33.552Z,84.70
2022-08-09T04:03:00.885Z,84.41
2022-08-09T04:05:28.262Z,84.33
2022-08-09T04:07:56.809Z,84.47
2022-08-09T04:10:29.884Z,85.20
2022-08-09T04:13:01.270Z,83.95
2022-08-09T04:16:18.545Z,84.56
2022-08-09T04:18:17.916Z,85.82
2022-08-09T04:20:50.062Z,85.40
2022-08-09T04:23:18.026Z,84.90
2022-08-09T04:25:52.155Z,84.63
2022-08-09T04:28:33.282Z,85.73
2022-08-09T04:31:08.222Z,85.96
2022-08-09T04:33:47.674Z,85.45
2022-08-09T04:36:25.514Z,86.34
2022-08-09T04:38:53.693Z,86.11
2022-08-09T04:41:23.975Z,86.03
2022-08-09T04:44:07.120Z,86.70
2022-08-09T04:46:58.495Z,86.50
2022-08-09T04:49:53.264Z,86.38
2022-08-09T04:52:26.782Z,86.83
2022-08-09T04:54:55.298Z,87.19
2022-08-09T04:57:24.450Z,86.69
2022-08-09T04:59:55.490Z,86.93
2022-08-09T05:02:27.469Z,86.87
2022-08-09T05:04:55.362Z,87.45
2022-08-09T05:07:22.520Z,87.33
2022-08-09T05:09:50.291Z,87.70
2022-08-09T05:12:17.504Z,87.58
2022-08-09T05:14:44.996Z,87.09
2022-08-09T05:18:39.707Z,87.79
2022-08-09T05:19:58.234Z,88.50
2022-08-09T05:22:33.568Z,88.10
2022-08-09T05:25:12.193Z,88.56
2022-08-09T05:27:45.429Z,88.14
2022-08-09T05:30:14.875Z,86.60
2022-08-09T05:32:42.509Z,87.03
2022-08-09T05:35:11.421Z,86.90
2022-08-09T05:37:47.539Z,88.65
2022-08-09T05:40:15.197Z,89.16
2022-08-09T05:42:42.732Z,89.09
2022-08-09T05:45:10.983Z,88.11
2022-08-09T05:47:52.107Z,88.39
2022-08-09T05:50:29.934Z,87.31
2022-08-09T05:53:02.488Z,88.27
2022-08-09T05:55:31.347Z,88.58
2022-08-09T05:57:58.482Z,88.29
2022-08-09T06:00:28.839Z,88.54
2022-08-09T06:03:00.705Z,88.93
2022-08-09T06:05:30.740Z,88.54
2022-08-09T06:08:19.517Z,87.39
2022-08-09T06:10:51.604Z,88.14
2022-08-09T06:13:20.134Z,87.87
2022-08-09T06:15:52.180Z,87.85
2022-08-09T06:18:25.187Z,88.02
2022-08-09T06:20:57.787Z,87.10
2022-08-09T06:23:55.043Z,86.72
2022-08-09T06:26:21.176Z,86.00
2022-08-09T06:28:59.336Z,85.39
2022-08-09T06:31:31.087Z,84.93
2022-08-09T06:34:06.680Z,85.16
2022-08-09T06:36:34.133Z,84.29
2022-08-09T06:39:02.342Z,84.59
2022-08-09T06:41:56.744Z,83.84
2022-08-09T06:44:18.233Z,83.59
2022-08-09T06:46:45.634Z,85.20
2022-08-09T06:49:12.686Z,83.93
2022-08-09T06:51:42.871Z,82.17
2022-08-09T06:54:14.784Z,82.91
2022-08-09T06:56:45.630Z,83.75
2022-08-09T07:00:55.798Z,82.61
2022-08-09T07:02:03.465Z,81.81
2022-08-09T07:04:31.082Z,81.98
2022-08-09T07:07:00.190Z,80.99
2022-08-09T07:09:55.305Z,80.44
2022-08-09T07:12:18.093Z,81.23
2022-08-09T07:14:45.985Z,80.48
2022-08-09T07:17:18.816Z,80.07
2022-08-09T07:19:47.899Z,79.74
2022-08-09T07:22:17.411Z,80.07
2022-08-09T07:24:49.405Z,79.96
2022-08-09T07:27:27.428Z,79.01
2022-08-09T07:30:01.787Z,77.11
2022-08-09T07:32:33.401Z,77.17
2022-08-09T07:35:10.453Z,77.88
2022-08-09T07:37:44.391Z,78.60
2022-08-09T07:40:20.578Z,78.61
2022-08-09T07:43:01.129Z,77.19
2022-08-09T07:45:40.281Z,76.94
2022-08-09T07:48:22.501Z,76.98
2022-08-09T07:51:10.262Z,75.68
2022-08-09T07:54:05.278Z,76.52
2022-08-09T07:56:30.988Z,76.80
2022-08-09T07:58:59.550Z,76.66
2022-08-09T08:01:34.176Z,77.28
2022-08-09T08:04:02.983Z,73.88
2022-08-09T08:06:31.864Z,73.67
2022-08-09T08:09:04.390Z,75.41
2022-08-09T08:12:11.149Z,72.99
2022-08-09T08:14:17.818Z,75.40
2022-08-09T08:17:00.426Z,76.59
2022-08-09T08:19:31.500Z,76.61
2022-08-09T08:21:58.295Z,74.18
2022-08-09T08:24:27.119Z,73.59
2022-08-09T08:27:02.021Z,75.18
2022-08-09T08:29:28.706Z,73.14
2022-08-09T08:32:06.385Z,73.58
2022-08-09T08:34:34.588Z,71.19
2022-08-09T08:37:03.412Z,72.27
2022-08-09T08:39:40.015Z,70.07
2022-08-09T08:42:11.120Z,68.47
2022-08-09T08:44:37.996Z,68.60
2022-08-09T08:47:13.172Z,67.28
2022-08-09T08:49:47.676Z,67.88
2022-08-09T08:52:52.641Z,68.29
2022-08-09T08:55:08.517Z,67.85
2022-08-09T08:57:37.150Z,66.50
2022-08-09T09:00:13.097Z,66.45
2022-08-09T09:02:52.253Z,66.72
2022-08-09T09:05:57.713Z,66.45
2022-08-09T09:08:30.488Z,67.63
2022-08-09T09:11:02.416Z,69.13
2022-08-09T09:13:41.766Z,68.02
2022-08-09T09:16:17.994Z,70.14
2022-08-09T09:19:15.695Z,72.10
2022-08-09T09:22:00.687Z,69.66
2022-08-09T09:24:34.665Z,67.95
2022-08-09T09:27:02.529Z,66.58
2022-08-09T09:30:09.316Z,68.00
2022-08-09T09:32:34.837Z,68.08
2022-08-09T09:35:12.847Z,67.58
2022-08-09T09:37:45.506Z,66.96
2022-08-09T09:40:12.489Z,64.38
2022-08-09T09:42:39.857Z,64.33
2022-08-09T09:45:14.357Z,64.55
2022-08-09T09:47:56.355Z,63.88
2022-08-09T09:50:49.817Z,64.08
2022-08-09T09:53:34.325Z,63.00
2022-08-09T09:56:30.858Z,64.06
2022-08-09T09:58:57.151Z,63.79
2022-08-09T10:01:31.432Z,64.26
2022-08-09T10:04:09.761Z,65.32
2022-08-09T10:06:43.496Z,64.27
2022-08-09T10:09:23.327Z,64.44
2022-08-09T10:12:26.942Z,62.63
2022-08-09T10:14:51.291Z,63.08
2022-08-09T10:17:50.182Z,62.33
2022-08-09T10:20:31.827Z,61.58
2022-08-09T10:23:14.125Z,59.77
2022-08-09T10:26:04.323Z,60.24
2022-08-09T10:28:33.676Z,59.80
2022-08-09T10:34:11.161Z,60.85
2022-08-09T10:36:35.657Z,60.74
2022-08-09T10:39:02.911Z,60.53
2022-08-09T10:41:42.139Z,61.94
2022-08-09T10:44:10.501Z,60.36
2022-08-09T10:47:01.210Z,60.06
2022-08-09T10:49:51.579Z,60.59
2022-08-09T10:52:56.674Z,60.03
2022-08-09T10:55:49.181Z,60.86
2022-08-09T10:58:37.286Z,60.19
2022-08-09T11:03:14.481Z,58.43
2022-08-09T11:04:36.028Z,59.65
2022-08-09T11:07:27.157Z,59.43
2022-08-09T11:10:13.768Z,59.15
2022-08-09T11:12:45.205Z,58.61
2022-08-09T11:15:19.311Z,58.83
2022-08-09T11:17:53.724Z,57.97
2022-08-09T11:20:44.704Z,58.96
2022-08-09T11:23:12.015Z,58.47
2022-08-09T11:25:47.554Z,57.77
2022-08-09T11:28:55.878Z,56.75
2022-08-09T11:31:52.791Z,58.22
2022-08-09T11:34:41.893Z,57.54
2022-08-09T11:37:18.064Z,57.56
2022-08-09T11:40:08.157Z,56.62
2022-08-09T11:42:47.120Z,57.43
2022-08-09T11:45:20.751Z,54.82
2022-08-09T11:47:51.165Z,56.43
2022-08-09T11:50:56.024Z,56.71
2022-08-09T11:53:21.353Z,55.46
2022-08-09T11:56:02.209Z,56.22
2022-08-09T11:58:33.038Z,55.02
2022-08-09T12:01:15.399Z,55.28
2022-08-09T12:04:03.324Z,58.39
2022-08-09T12:06:35.034Z,58.01
2022-08-09T12:09:15.210Z,54.05
2022-08-09T12:12:02.356Z,55.75
2022-08-09T12:14:41.050Z,59.74
2022-08-09T12:17:33.788Z,55.52
2022-08-09T12:20:27.133Z,55.65
2022-08-09T12:23:03.346Z,53.37
2022-08-09T12:25:37.466Z,51.91
2022-08-09T12:29:14.483Z,51.76
2022-08-09T12:30:59.379Z,51.60
2022-08-09T12:33:26.478Z,53.10
2022-08-09T12:36:27.597Z,53.43
2022-08-09T12:38:59.199Z,50.58
2022-08-09T12:41:39.286Z,50.68
2022-08-09T12:44:10.042Z,49.33
2022-08-09T12:46:49.356Z,49.30
2022-08-09T12:49:17.954Z,42.52
2022-08-09T12:52:02.820Z,47.98
2022-08-09T12:56:11.092Z,43.21
2022-08-09T12:57:46.855Z,46.31
2022-08-09T13:00:25.149Z,47.33
2022-08-09T13:03:01.952Z,47.90
2022-08-09T13:05:52.238Z,40.75
2022-08-09T13:08:40.706Z,45.58
2022-08-09T13:11:13.160Z,46.07
2022-08-09T13:14:38.642Z,43.71
2022-08-09T13:16:50.005Z,44.02
2022-08-09T13:20:11.302Z,44.02
2022-08-09T13:22:37.897Z,45.14
2022-08-09T13:25:14.297Z,42.68
2022-08-09T13:27:48.595Z,40.76
2022-08-09T13:30:49.111Z,44.88
2022-08-09T13:33:52.861Z,43.82
2022-08-09T13:36:24.466Z,44.64
2022-08-09T13:39:31.051Z,43.27
2022-08-09T13:42:00.767Z,40.37
2022-08-09T13:44:28.461Z,42.26
2022-08-09T13:47:27.452Z,42.23
2022-08-09T13:49:56.522Z,43.31
2022-08-09T13:52:30.298Z,43.23
2022-08-09T13:55:00.609Z,41.67
2022-08-09T13:57:40.243Z,41.81
2022-08-09T14:00:17.593Z,42.51
2022-08-09T14:03:03.579Z,39.32
2022-08-09T14:05:56.526Z,40.46
2022-08-09T14:08:28.193Z,41.46
2022-08-09T14:10:55.560Z,42.18
2022-08-09T14:14:17.362Z,42.71
2022-08-09T14:16:18.125Z,41.53
2022-08-09T14:18:49.616Z,40.51
2022-08-09T14:21:22.676Z,43.48
2022-08-09T14:23:55.215Z,41.90
2022-08-09T14:26:32.005Z,43.25
2022-08-09T14:29:07.603Z,43.38
2022-08-09T14:31:52.272Z,43.94
2022-08-09T14:34:27.248Z,43.13
2022-08-09T14:36:58.611Z,42.95
2022-08-09T14:39:46.575Z,44.88
2022-08-09T14:42:12.403Z,43.59
2022-08-09T14:44:59.122Z,43.31
2022-08-09T14:47:41.321Z,43.78
2022-08-09T14:50:12.794Z,44.81
2022-08-09T14:52:43.060Z,43.81
2022-08-09T14:55:09.927Z,41.71
2022-08-09T14:57:43.624Z,40.24
2022-08-09T15:00:11.598Z,40.85
2022-08-09T15:02:38.574Z,40.93
2022-08-09T15:05:07.222Z,42.65
2022-08-09T15:07:35.378Z,43.92
2022-08-09T15:10:11.193Z,44.24
2022-08-09T15:12:40.665Z,43.12
2022-08-09T15:15:12.992Z,43.70
2022-08-09T15:17:42.556Z,42.38
2022-08-09T15:20:18.860Z,42.01
2022-08-09T15:23:56.246Z,44.23
2022-08-09T15:25:46.182Z,43.01
2022-08-09T15:28:20.118Z,43.20
2022-08-09T15:31:03.145Z,44.46
2022-08-09T15:34:31.162Z,41.84
2022-08-09T15:36:29.200Z,42.25
2022-08-09T15:38:57.672Z,42.69
2022-08-09T15:41:31.449Z,43.59
2022-08-09T15:44:00.190Z,43.43
2022-08-09T15:46:32.837Z,43.03
2022-08-09T15:49:21.947Z,44.45
2022-08-09T15:52:05.223Z,44.35
2022-08-09T15:54:49.125Z,44.64
2022-08-09T15:57:19.238Z,44.42
2022-08-09T16:00:25.526Z,42.47
2022-08-09T16:02:54.715Z,43.72
2022-08-09T16:05:26.620Z,44.95
2022-08-09T16:08:24.650Z,41.48
2022-08-09T16:10:58.327Z,43.44
2022-08-09T16:14:04.272Z,42.17
2022-08-09T16:16:17.433Z,44.74
2022-08-09T16:18:45.874Z,40.45
2022-08-09T16:21:17.176Z,42.76
2022-08-09T16:23:55.780Z,44.51
2022-08-09T16:26:34.922Z,41.23
2022-08-09T16:29:11.218Z,40.66
2022-08-09T16:32:17.965Z,42.27
2022-08-09T16:34:55.281Z,42.44
2022-08-09T16:37:18.383Z,42.47
2022-08-09T16:39:54.431Z,38.99
2022-08-09T16:42:32.314Z,39.92
2022-08-09T16:44:58.812Z,43.03
2022-08-09T16:48:38.850Z,43.30
2022-08-09T16:50:29.132Z,44.80
2022-08-09T16:52:58.807Z,43.50
2022-08-09T16:55:25.739Z,42.84
2022-08-09T16:58:09.047Z,40.85
2022-08-09T17:00:37.045Z,43.21
2022-08-09T17:03:08.761Z,43.40
2022-08-09T17:06:06.888Z,42.25
2022-08-09T17:08:46.138Z,43.57
2022-08-09T17:11:32.778Z,44.00
2022-08-09T17:14:04.177Z,44.35
2022-08-09T17:16:30.782Z,42.61
2022-08-09T17:19:05.324Z,42.34
2022-08-09T17:21:31.946Z,42.24
2022-08-09T17:24:20.737Z,40.05
2022-08-09T17:26:47.701Z,42.70
2022-08-09T17:29:20.705Z,41.49
2022-08-09T17:31:49.153Z,42.64
2022-08-09T17:34:20.190Z,43.60
2022-08-09T17:37:02.759Z,43.36
2022-08-09T17:39:53.238Z,43.51
2022-08-09T17:42:42.197Z,44.54
2022-08-09T17:45:06.504Z,43.86
2022-08-09T17:47:49.653Z,45.45
2022-08-09T17:50:24.981Z,44.63
2022-08-09T17:53:04.679Z,45.92
2022-08-09T17:55:48.652Z,45.57
2022-08-09T17:58:17.347Z,44.87
2022-08-09T18:00:47.988Z,45.60
2022-08-09T18:03:15.152Z,46.56
2022-08-09T18:05:44.713Z,45.24
2022-08-09T18:08:13.407Z,46.37
2022-08-09T18:10:40.212Z,44.31
2022-08-09T18:13:54.405Z,45.92
2022-08-09T18:16:07.533Z,42.82
2022-08-09T18:18:43.111Z,46.48
2022-08-09T18:21:23.050Z,47.97
2022-08-09T18:24:11.630Z,46.30
2022-08-09T18:26:38.515Z,47.00
2022-08-09T18:30:39.731Z,48.42
2022-08-09T18:31:59.434Z,47.01
2022-08-09T18:34:28.915Z,45.46
2022-08-09T18:36:55.775Z,48.52
2022-08-09T18:39:24.135Z,48.52
2022-08-09T18:41:53.257Z,49.10
2022-08-09T18:44:23.025Z,48.79
2022-08-09T18:47:07.878Z,47.52
2022-08-09T18:49:43.215Z,46.64
2022-08-09T18:52:14.331Z,47.90
2022-08-09T18:54:52.889Z,47.70
2022-08-09T18:57:22.245Z,48.46
2022-08-09T18:59:55.428Z,49.82
2022-08-09T19:02:31.792Z,54.20
2022-08-09T19:05:04.159Z,53.44
2022-08-09T19:07:51.529Z,52.48
2022-08-09T19:10:29.105Z,53.71
2022-08-09T19:13:20.919Z,52.92
2022-08-09T19:15:56.266Z,52.88
2022-08-09T19:18:33.060Z,53.50
2022-08-09T19:21:09.785Z,52.62
2022-08-09T19:24:37.831Z,54.17
2022-08-09T19:26:29.535Z,53.48
2022-08-09T19:29:02.002Z,52.60
2022-08-09T19:31:30.453Z,51.51
2022-08-09T19:33:58.044Z,51.38
2022-08-09T19:36:30.683Z,52.84
2022-08-09T19:38:59.297Z,51.21
2022-08-09T19:41:33.421Z,51.93
2022-08-09T19:44:03.342Z,52.04
2022-08-09T19:46:35.631Z,50.47
2022-08-09T19:50:06.715Z,51.38
2022-08-09T19:52:02.542Z,52.01
2022-08-09T19:54:29.667Z,52.34
2022-08-09T19:56:57.029Z,53.22
2022-08-09T19:59:57.983Z,54.03
2022-08-09T20:02:18.203Z,53.31
2022-08-09T20:04:59.532Z,52.63
2022-08-09T20:07:57.133Z,52.50
2022-08-09T20:10:17.857Z,51.14
2022-08-09T20:12:49.222Z,52.67
2022-08-09T20:16:34.714Z,53.92
2022-08-09T20:18:05.204Z,52.27
2022-08-09T20:20:35.604Z,51.47
2022-08-09T20:23:04.460Z,51.91
2022-08-09T20:25:49.553Z,51.76
2022-08-09T20:28:27.699Z,52.10
2022-08-09T20:30:58.686Z,50.91
2022-08-09T20:33:25.810Z,51.68
2022-08-09T20:35:52.910Z,52.52
2022-08-09T20:38:30.265Z,50.93
2022-08-09T20:41:06.193Z,53.12
2022-08-09T20:43:33.015Z,53.16
2022-08-09T20:46:33.844Z,52.92
2022-08-09T20:48:48.070Z,52.66
2022-08-09T20:51:19.146Z,52.66
2022-08-09T20:53:45.952Z,52.48
2022-08-09T20:56:21.055Z,52.19
2022-08-09T20:58:57.789Z,52.60
2022-08-09T21:01:34.154Z,53.47
2022-08-09T21:05:53.444Z,52.83
2022-08-09T21:06:58.374Z,52.65
2022-08-09T21:09:41.680Z,53.06
2022-08-09T21:14:48.155Z,52.39
2022-08-09T21:18:22.820Z,53.47
2022-08-09T21:20:18.396Z,53.06
2022-08-09T21:22:52.656Z,53.77
2022-08-09T21:25:39.082Z,54.71
2022-08-09T21:28:12.218Z,54.42
2022-08-09T21:30:42.485Z,55.53
2022-08-09T21:33:09.652Z,54.77
2022-08-09T21:35:41.017Z,54.02
2022-08-09T21:38:31.010Z,54.38
2022-08-09T21:40:59.135Z,54.34
2022-08-09T21:43:46.578Z,54.67
2022-08-09T21:46:12.242Z,54.08
2022-08-09T21:48:42.582Z,55.41
2022-08-09T21:51:24.452Z,53.99
2022-08-09T21:54:02.979Z,54.78
2022-08-09T21:56:43.552Z,54.78
2022-08-09T21:59:16.278Z,55.26
2022-08-09T22:02:00.476Z,55.80
2022-08-09T22:04:55.723Z,55.84
2022-08-09T22:07:33.734Z,54.09
2022-08-09T22:10:01.441Z,54.18
2022-08-09T22:12:30.613Z,55.00
2022-08-09T22:14:58.041Z,54.43
2022-08-09T22:17:24.584Z,53.65
2022-08-09T22:19:58.548Z,55.55
2022-08-09T22:22:27.389Z,55.47
2022-08-09T22:26:06.604Z,56.03
2022-08-09T22:27:40.463Z,56.38
2022-08-09T22:30:07.756Z,55.69
2022-08-09T22:32:34.792Z,55.79
2022-08-09T22:35:06.615Z,54.22
2022-08-09T22:37:49.805Z,55.34
2022-08-09T22:40:34.189Z,55.32
2022-08-09T22:43:01.073Z,56.04
2022-08-09T22:48:17.099Z,54.75
2022-08-09T22:48:36.000Z,54.38
2022-08-09T22:51:10.337Z,54.29
2022-08-09T22:53:58.451Z,55.54
2022-08-09T22:56:31.278Z,54.01
2022-08-09T22:59:05.831Z,54.77
2022-08-09T23:01:48.669Z,55.37
2022-08-09T23:04:15.159Z,54.92
2022-08-09T23:07:02.757Z,55.20
2022-08-09T23:09:29.235Z,54.76
2022-08-09T23:11:55.792Z,54.78
2022-08-09T23:14:36.247Z,54.69
2022-08-09T23:17:04.046Z,55.63
2022-08-09T23:19:30.513Z,55.82
2022-08-09T23:22:17.024Z,55.07
2022-08-09T23:24:43.658Z,55.18
2022-08-09T23:27:15.570Z,56.09
2022-08-09T23:29:42.047Z,55.35
2022-08-09T23:32:08.681Z,55.82
2022-08-09T23:34:35.293Z,56.16
2022-08-09T23:37:01.751Z,55.67
2022-08-09T23:39:28.305Z,57.08
2022-08-09T23:41:54.868Z,56.71
2022-08-09T23:44:22.219Z,57.85
2022-08-09T23:46:55.499Z,56.38
2022-08-09T23:49:24.528Z,56.40
2022-08-09T23:51:52.427Z,57.32
2022-08-09T23:54:19.855Z,56.46
2022-08-09T23:56:54.295Z,56.71
2022-08-09T23:59:22.725Z,58.39
